sensor_id;sensor_type;location;lat;lon;timestamp;P1;durP1;ratioP1;P2;durP2;ratioP2
19739;SDS011;10027;51.066;13.768;2023-09-07T00:02:10;8.53;;;5.70;;
19739;SDS011;10027;51.066;13.768;2023-09-07T00:04:38;6.73;;;5.63;;
19739;SDS011;10027;51.066;13.768;2023-09-07T00:07:05;7.47;;;5.37;;
19739;SDS011;10027;51.066;13.768;2023-09-07T00:09:32;8.10;;;5.80;;
19739;SDS011;10027;51.066;13.768;2023-09-07T00:12:00;6.57;;;5.47;;
19739;SDS011;10027;51.066;13.768;2023-09-07T00:14:27;6.83;;;5.40;;
19739;SDS011;10027;51.066;13.768;2023-09-07T00:16:54;5.47;;;4.97;;
19739;SDS011;10027;51.066;13.768;2023-09-07T00:19:23;7.97;;;5.70;;
19739;SDS011;10027;51.066;13.768;2023-09-07T00:21:51;6.93;;;5.10;;
19739;SDS011;10027;51.066;13.768;2023-09-07T00:24:18;6.43;;;5.73;;
19739;SDS011;10027;51.066;13.768;2023-09-07T00:26:45;6.87;;;5.37;;
19739;SDS011;10027;51.066;13.768;2023-09-07T00:29:13;6.10;;;5.50;;
19739;SDS011;10027;51.066;13.768;2023-09-07T00:31:40;7.23;;;5.77;;
19739;SDS011;10027;51.066;13.768;2023-09-07T00:34:08;6.60;;;5.30;;
19739;SDS011;10027;51.066;13.768;2023-09-07T00:36:35;7.33;;;5.80;;
19739;SDS011;10027;51.066;13.768;2023-09-07T00:39:02;7.23;;;5.43;;
19739;SDS011;10027;51.066;13.768;2023-09-07T00:41:30;6.03;;;5.00;;
19739;SDS011;10027;51.066;13.768;2023-09-07T00:43:57;6.67;;;5.43;;
19739;SDS011;10027;51.066;13.768;2023-09-07T00:46:24;6.00;;;5.03;;
19739;SDS011;10027;51.066;13.768;2023-09-07T00:48:52;7.17;;;5.60;;
19739;SDS011;10027;51.066;13.768;2023-09-07T00:51:19;7.87;;;5.80;;
19739;SDS011;10027;51.066;13.768;2023-09-07T00:53:47;6.93;;;5.07;;
19739;SDS011;10027;51.066;13.768;2023-09-07T00:56:14;7.17;;;5.23;;
19739;SDS011;10027;51.066;13.768;2023-09-07T00:58:41;8.43;;;5.30;;
19739;SDS011;10027;51.066;13.768;2023-09-07T01:01:09;6.57;;;5.43;;
19739;SDS011;10027;51.066;13.768;2023-09-07T01:03:36;7.20;;;5.73;;
19739;SDS011;10027;51.066;13.768;2023-09-07T01:06:10;6.57;;;5.37;;
19739;SDS011;10027;51.066;13.768;2023-09-07T01:08:41;6.20;;;5.03;;
19739;SDS011;10027;51.066;13.768;2023-09-07T01:11:16;7.00;;;5.80;;
19739;SDS011;10027;51.066;13.768;2023-09-07T01:13:44;7.47;;;5.13;;
19739;SDS011;10027;51.066;13.768;2023-09-07T01:16:12;9.33;;;5.50;;
19739;SDS011;10027;51.066;13.768;2023-09-07T01:18:40;7.23;;;5.40;;
19739;SDS011;10027;51.066;13.768;2023-09-07T01:21:09;7.10;;;5.53;;
19739;SDS011;10027;51.066;13.768;2023-09-07T01:23:37;6.80;;;5.87;;
19739;SDS011;10027;51.066;13.768;2023-09-07T01:26:06;6.83;;;5.70;;
19739;SDS011;10027;51.066;13.768;2023-09-07T01:28:34;11.07;;;5.50;;
19739;SDS011;10027;51.066;13.768;2023-09-07T01:31:04;7.83;;;5.50;;
19739;SDS011;10027;51.066;13.768;2023-09-07T01:33:32;6.47;;;5.43;;
19739;SDS011;10027;51.066;13.768;2023-09-07T01:35:59;7.20;;;5.53;;
19739;SDS011;10027;51.066;13.768;2023-09-07T01:38:27;6.67;;;5.10;;
19739;SDS011;10027;51.066;13.768;2023-09-07T01:40:54;7.40;;;5.90;;
19739;SDS011;10027;51.066;13.768;2023-09-07T01:43:22;7.60;;;5.83;;
19739;SDS011;10027;51.066;13.768;2023-09-07T01:45:49;7.33;;;5.70;;
19739;SDS011;10027;51.066;13.768;2023-09-07T01:48:16;5.93;;;5.33;;
19739;SDS011;10027;51.066;13.768;2023-09-07T01:50:43;9.20;;;5.70;;
19739;SDS011;10027;51.066;13.768;2023-09-07T01:53:11;7.23;;;5.87;;
19739;SDS011;10027;51.066;13.768;2023-09-07T01:55:38;5.77;;;5.17;;
19739;SDS011;10027;51.066;13.768;2023-09-07T01:58:05;6.50;;;5.37;;
19739;SDS011;10027;51.066;13.768;2023-09-07T02:00:35;6.87;;;5.50;;
19739;SDS011;10027;51.066;13.768;2023-09-07T02:03:03;5.87;;;5.27;;
19739;SDS011;10027;51.066;13.768;2023-09-07T02:05:30;8.00;;;5.20;;
19739;SDS011;10027;51.066;13.768;2023-09-07T02:08:00;8.50;;;5.57;;
19739;SDS011;10027;51.066;13.768;2023-09-07T02:10:28;7.03;;;5.63;;
19739;SDS011;10027;51.066;13.768;2023-09-07T02:12:55;7.67;;;5.50;;
19739;SDS011;10027;51.066;13.768;2023-09-07T02:18:00;7.40;;;6.03;;
19739;SDS011;10027;51.066;13.768;2023-09-07T02:20:30;10.53;;;5.83;;
19739;SDS011;10027;51.066;13.768;2023-09-07T02:22:57;9.60;;;5.77;;
19739;SDS011;10027;51.066;13.768;2023-09-07T02:25:24;7.17;;;6.10;;
19739;SDS011;10027;51.066;13.768;2023-09-07T02:27:52;8.13;;;6.13;;
19739;SDS011;10027;51.066;13.768;2023-09-07T02:30:19;7.67;;;5.53;;
19739;SDS011;10027;51.066;13.768;2023-09-07T02:32:46;7.80;;;5.93;;
19739;SDS011;10027;51.066;13.768;2023-09-07T02:35:13;8.93;;;5.70;;
19739;SDS011;10027;51.066;13.768;2023-09-07T02:37:40;8.77;;;5.80;;
19739;SDS011;10027;51.066;13.768;2023-09-07T02:40:08;10.10;;;5.87;;
19739;SDS011;10027;51.066;13.768;2023-09-07T02:42:35;8.10;;;5.90;;
19739;SDS011;10027;51.066;13.768;2023-09-07T02:45:03;6.50;;;5.67;;
19739;SDS011;10027;51.066;13.768;2023-09-07T02:47:30;8.13;;;5.70;;
19739;SDS011;10027;51.066;13.768;2023-09-07T02:49:58;7.90;;;6.23;;
19739;SDS011;10027;51.066;13.768;2023-09-07T02:52:25;9.20;;;6.10;;
19739;SDS011;10027;51.066;13.768;2023-09-07T02:54:52;6.23;;;5.57;;
19739;SDS011;10027;51.066;13.768;2023-09-07T02:57:20;8.23;;;6.00;;
19739;SDS011;10027;51.066;13.768;2023-09-07T02:59:47;7.20;;;5.83;;
19739;SDS011;10027;51.066;13.768;2023-09-07T03:02:14;7.37;;;5.47;;
19739;SDS011;10027;51.066;13.768;2023-09-07T03:04:41;7.10;;;5.77;;
19739;SDS011;10027;51.066;13.768;2023-09-07T03:07:09;7.67;;;5.93;;
19739;SDS011;10027;51.066;13.768;2023-09-07T03:09:36;6.80;;;5.77;;
19739;SDS011;10027;51.066;13.768;2023-09-07T03:12:04;6.20;;;5.60;;
19739;SDS011;10027;51.066;13.768;2023-09-07T03:14:31;7.67;;;5.67;;
19739;SDS011;10027;51.066;13.768;2023-09-07T03:16:58;6.53;;;5.83;;
19739;SDS011;10027;51.066;13.768;2023-09-07T03:19:26;9.67;;;6.20;;
19739;SDS011;10027;51.066;13.768;2023-09-07T03:21:53;9.97;;;6.00;;
19739;SDS011;10027;51.066;13.768;2023-09-07T03:24:21;7.47;;;6.13;;
19739;SDS011;10027;51.066;13.768;2023-09-07T03:26:48;6.97;;;5.17;;
19739;SDS011;10027;51.066;13.768;2023-09-07T03:29:15;7.57;;;6.13;;
19739;SDS011;10027;51.066;13.768;2023-09-07T03:31:42;7.23;;;5.67;;
19739;SDS011;10027;51.066;13.768;2023-09-07T03:34:10;7.50;;;5.77;;
19739;SDS011;10027;51.066;13.768;2023-09-07T03:36:37;6.20;;;5.50;;
19739;SDS011;10027;51.066;13.768;2023-09-07T03:39:04;7.00;;;5.90;;
19739;SDS011;10027;51.066;13.768;2023-09-07T03:41:34;7.07;;;5.57;;
19739;SDS011;10027;51.066;13.768;2023-09-07T03:44:01;6.73;;;5.73;;
19739;SDS011;10027;51.066;13.768;2023-09-07T03:46:28;7.93;;;6.00;;
19739;SDS011;10027;51.066;13.768;2023-09-07T03:48:56;7.07;;;5.57;;
19739;SDS011;10027;51.066;13.768;2023-09-07T03:51:23;6.50;;;5.40;;
19739;SDS011;10027;51.066;13.768;2023-09-07T03:53:50;7.23;;;5.40;;
19739;SDS011;10027;51.066;13.768;2023-09-07T03:56:18;6.07;;;5.43;;
19739;SDS011;10027;51.066;13.768;2023-09-07T03:58:45;6.97;;;5.40;;
19739;SDS011;10027;51.066;13.768;2023-09-07T04:01:15;9.87;;;5.90;;
19739;SDS011;10027;51.066;13.768;2023-09-07T04:03:42;8.37;;;5.73;;
19739;SDS011;10027;51.066;13.768;2023-09-07T04:06:10;8.57;;;5.53;;
19739;SDS011;10027;51.066;13.768;2023-09-07T04:08:37;6.27;;;5.10;;
19739;SDS011;10027;51.066;13.768;2023-09-07T04:11:05;8.63;;;5.87;;
19739;SDS011;10027;51.066;13.768;2023-09-07T04:13:32;6.33;;;5.40;;
19739;SDS011;10027;51.066;13.768;2023-09-07T04:15:59;7.40;;;5.57;;
19739;SDS011;10027;51.066;13.768;2023-09-07T04:18:27;7.93;;;5.60;;
19739;SDS011;10027;51.066;13.768;2023-09-07T04:21:03;7.50;;;5.63;;
19739;SDS011;10027;51.066;13.768;2023-09-07T04:23:31;9.80;;;6.17;;
19739;SDS011;10027;51.066;13.768;2023-09-07T04:26:03;8.13;;;6.17;;
19739;SDS011;10027;51.066;13.768;2023-09-07T04:28:30;7.33;;;5.73;;
19739;SDS011;10027;51.066;13.768;2023-09-07T04:30:58;6.27;;;5.40;;
19739;SDS011;10027;51.066;13.768;2023-09-07T04:33:25;7.43;;;5.67;;
19739;SDS011;10027;51.066;13.768;2023-09-07T04:35:53;10.23;;;5.60;;
19739;SDS011;10027;51.066;13.768;2023-09-07T04:38:20;7.53;;;5.73;;
19739;SDS011;10027;51.066;13.768;2023-09-07T04:40:47;7.87;;;5.87;;
19739;SDS011;10027;51.066;13.768;2023-09-07T04:43:14;7.30;;;5.80;;
19739;SDS011;10027;51.066;13.768;2023-09-07T04:45:47;8.00;;;5.87;;
19739;SDS011;10027;51.066;13.768;2023-09-07T04:48:14;8.07;;;6.13;;
19739;SDS011;10027;51.066;13.768;2023-09-07T04:50:42;6.83;;;5.90;;
19739;SDS011;10027;51.066;13.768;2023-09-07T04:53:09;7.83;;;6.00;;
19739;SDS011;10027;51.066;13.768;2023-09-07T04:55:37;7.10;;;5.90;;
19739;SDS011;10027;51.066;13.768;2023-09-07T04:58:05;7.17;;;6.00;;
19739;SDS011;10027;51.066;13.768;2023-09-07T05:00:33;8.73;;;5.97;;
19739;SDS011;10027;51.066;13.768;2023-09-07T05:03:00;9.57;;;5.97;;
19739;SDS011;10027;51.066;13.768;2023-09-07T05:05:28;7.00;;;5.87;;
19739;SDS011;10027;51.066;13.768;2023-09-07T05:07:55;8.40;;;5.90;;
19739;SDS011;10027;51.066;13.768;2023-09-07T05:10:23;7.27;;;5.90;;
19739;SDS011;10027;51.066;13.768;2023-09-07T05:12:50;6.90;;;5.87;;
19739;SDS011;10027;51.066;13.768;2023-09-07T05:15:17;8.93;;;6.10;;
19739;SDS011;10027;51.066;13.768;2023-09-07T05:17:45;8.10;;;5.93;;
19739;SDS011;10027;51.066;13.768;2023-09-07T05:20:12;8.17;;;5.70;;
19739;SDS011;10027;51.066;13.768;2023-09-07T05:22:39;7.77;;;6.60;;
19739;SDS011;10027;51.066;13.768;2023-09-07T05:25:07;7.97;;;5.47;;
19739;SDS011;10027;51.066;13.768;2023-09-07T05:27:35;7.53;;;5.87;;
19739;SDS011;10027;51.066;13.768;2023-09-07T05:30:03;6.27;;;5.40;;
19739;SDS011;10027;51.066;13.768;2023-09-07T05:32:30;7.27;;;5.73;;
19739;SDS011;10027;51.066;13.768;2023-09-07T05:35:00;9.03;;;5.90;;
19739;SDS011;10027;51.066;13.768;2023-09-07T05:37:27;7.30;;;5.70;;
19739;SDS011;10027;51.066;13.768;2023-09-07T05:39:55;7.83;;;6.20;;
19739;SDS011;10027;51.066;13.768;2023-09-07T05:42:22;7.07;;;5.67;;
19739;SDS011;10027;51.066;13.768;2023-09-07T05:44:49;9.73;;;5.63;;
19739;SDS011;10027;51.066;13.768;2023-09-07T05:47:19;6.70;;;5.50;;
19739;SDS011;10027;51.066;13.768;2023-09-07T05:49:47;8.77;;;5.80;;
19739;SDS011;10027;51.066;13.768;2023-09-07T05:52:14;6.47;;;5.53;;
19739;SDS011;10027;51.066;13.768;2023-09-07T05:54:41;8.27;;;6.00;;
19739;SDS011;10027;51.066;13.768;2023-09-07T05:57:09;7.97;;;5.77;;
19739;SDS011;10027;51.066;13.768;2023-09-07T05:59:36;6.47;;;5.77;;
19739;SDS011;10027;51.066;13.768;2023-09-07T06:02:03;7.20;;;5.40;;
19739;SDS011;10027;51.066;13.768;2023-09-07T06:04:30;6.90;;;5.57;;
19739;SDS011;10027;51.066;13.768;2023-09-07T06:06:57;5.87;;;5.23;;
19739;SDS011;10027;51.066;13.768;2023-09-07T06:09:25;7.07;;;5.63;;
19739;SDS011;10027;51.066;13.768;2023-09-07T06:11:52;6.27;;;5.60;;
19739;SDS011;10027;51.066;13.768;2023-09-07T06:14:19;6.20;;;5.47;;
19739;SDS011;10027;51.066;13.768;2023-09-07T06:16:47;7.10;;;5.73;;
19739;SDS011;10027;51.066;13.768;2023-09-07T06:19:14;5.93;;;5.20;;
19739;SDS011;10027;51.066;13.768;2023-09-07T06:21:41;6.87;;;5.63;;
19739;SDS011;10027;51.066;13.768;2023-09-07T06:24:09;7.33;;;5.53;;
19739;SDS011;10027;51.066;13.768;2023-09-07T06:26:36;7.07;;;5.27;;
19739;SDS011;10027;51.066;13.768;2023-09-07T06:29:03;6.80;;;5.50;;
19739;SDS011;10027;51.066;13.768;2023-09-07T06:31:30;5.80;;;5.20;;
19739;SDS011;10027;51.066;13.768;2023-09-07T06:33:58;6.23;;;5.50;;
19739;SDS011;10027;51.066;13.768;2023-09-07T06:36:25;8.20;;;5.10;;
19739;SDS011;10027;51.066;13.768;2023-09-07T06:39:12;5.60;;;5.00;;
19739;SDS011;10027;51.066;13.768;2023-09-07T06:41:39;6.17;;;4.97;;
19739;SDS011;10027;51.066;13.768;2023-09-07T06:44:06;6.00;;;4.97;;
19739;SDS011;10027;51.066;13.768;2023-09-07T06:46:33;5.68;;;5.07;;
19739;SDS011;10027;51.066;13.768;2023-09-07T06:49:01;5.70;;;5.07;;
19739;SDS011;10027;51.066;13.768;2023-09-07T06:51:30;5.75;;;4.90;;
19739;SDS011;10027;51.066;13.768;2023-09-07T06:53:57;5.68;;;5.13;;
19739;SDS011;10027;51.066;13.768;2023-09-07T06:56:24;4.68;;;4.28;;
19739;SDS011;10027;51.066;13.768;2023-09-07T06:58:53;5.18;;;4.68;;
19739;SDS011;10027;51.066;13.768;2023-09-07T07:01:20;8.32;;;5.40;;
19739;SDS011;10027;51.066;13.768;2023-09-07T07:03:47;6.38;;;5.07;;
19739;SDS011;10027;51.066;13.768;2023-09-07T07:06:15;5.40;;;4.90;;
19739;SDS011;10027;51.066;13.768;2023-09-07T07:08:42;5.10;;;4.70;;
19739;SDS011;10027;51.066;13.768;2023-09-07T07:11:09;5.10;;;4.60;;
19739;SDS011;10027;51.066;13.768;2023-09-07T07:13:37;4.95;;;4.43;;
19739;SDS011;10027;51.066;13.768;2023-09-07T07:16:04;4.93;;;4.38;;
19739;SDS011;10027;51.066;13.768;2023-09-07T07:18:32;5.63;;;4.60;;
19739;SDS011;10027;51.066;13.768;2023-09-07T07:20:59;5.15;;;4.65;;
19739;SDS011;10027;51.066;13.768;2023-09-07T07:23:26;4.90;;;4.50;;
19739;SDS011;10027;51.066;13.768;2023-09-07T07:25:53;4.72;;;4.28;;
19739;SDS011;10027;51.066;13.768;2023-09-07T07:28:20;4.45;;;4.07;;
19739;SDS011;10027;51.066;13.768;2023-09-07T07:30:48;4.30;;;3.95;;
19739;SDS011;10027;51.066;13.768;2023-09-07T07:33:15;5.10;;;4.47;;
19739;SDS011;10027;51.066;13.768;2023-09-07T07:35:42;5.75;;;4.32;;
19739;SDS011;10027;51.066;13.768;2023-09-07T07:38:09;4.50;;;4.10;;
19739;SDS011;10027;51.066;13.768;2023-09-07T07:40:36;4.53;;;4.20;;
19739;SDS011;10027;51.066;13.768;2023-09-07T07:43:04;4.53;;;4.13;;
19739;SDS011;10027;51.066;13.768;2023-09-07T07:45:32;4.38;;;3.97;;
19739;SDS011;10027;51.066;13.768;2023-09-07T07:48:05;4.53;;;4.20;;
19739;SDS011;10027;51.066;13.768;2023-09-07T07:50:40;4.80;;;4.40;;
19739;SDS011;10027;51.066;13.768;2023-09-07T07:53:07;4.68;;;4.28;;
19739;SDS011;10027;51.066;13.768;2023-09-07T07:55:36;4.43;;;4.10;;
19739;SDS011;10027;51.066;13.768;2023-09-07T07:58:07;4.47;;;4.18;;
19739;SDS011;10027;51.066;13.768;2023-09-07T08:00:38;4.57;;;4.15;;
19739;SDS011;10027;51.066;13.768;2023-09-07T08:03:13;5.13;;;4.00;;
19739;SDS011;10027;51.066;13.768;2023-09-07T08:05:41;4.30;;;3.90;;
19739;SDS011;10027;51.066;13.768;2023-09-07T08:08:09;4.03;;;3.72;;
19739;SDS011;10027;51.066;13.768;2023-09-07T08:10:37;4.32;;;3.95;;
19739;SDS011;10027;51.066;13.768;2023-09-07T08:13:04;4.22;;;3.92;;
19739;SDS011;10027;51.066;13.768;2023-09-07T08:15:32;4.68;;;4.28;;
19739;SDS011;10027;51.066;13.768;2023-09-07T08:17:59;4.10;;;3.80;;
19739;SDS011;10027;51.066;13.768;2023-09-07T08:20:27;4.10;;;3.80;;
19739;SDS011;10027;51.066;13.768;2023-09-07T08:22:56;4.20;;;3.80;;
19739;SDS011;10027;51.066;13.768;2023-09-07T08:25:24;3.90;;;3.60;;
19739;SDS011;10027;51.066;13.768;2023-09-07T08:27:52;4.32;;;3.95;;
19739;SDS011;10027;51.066;13.768;2023-09-07T08:30:23;4.25;;;3.80;;
19739;SDS011;10027;51.066;13.768;2023-09-07T08:32:52;3.97;;;3.67;;
19739;SDS011;10027;51.066;13.768;2023-09-07T08:35:19;4.85;;;3.58;;
19739;SDS011;10027;51.066;13.768;2023-09-07T08:37:46;4.05;;;3.72;;
19739;SDS011;10027;51.066;13.768;2023-09-07T08:40:14;4.13;;;3.78;;
19739;SDS011;10027;51.066;13.768;2023-09-07T08:42:43;4.70;;;3.83;;
19739;SDS011;10027;51.066;13.768;2023-09-07T08:45:11;4.10;;;3.80;;
19739;SDS011;10027;51.066;13.768;2023-09-07T08:47:40;4.10;;;3.70;;
19739;SDS011;10027;51.066;13.768;2023-09-07T08:50:08;5.20;;;3.60;;
19739;SDS011;10027;51.066;13.768;2023-09-07T08:52:35;4.88;;;4.15;;
19739;SDS011;10027;51.066;13.768;2023-09-07T08:55:03;4.13;;;3.65;;
19739;SDS011;10027;51.066;13.768;2023-09-07T08:57:31;4.38;;;3.72;;
19739;SDS011;10027;51.066;13.768;2023-09-07T08:59:58;4.20;;;3.80;;
19739;SDS011;10027;51.066;13.768;2023-09-07T09:02:26;4.00;;;3.70;;
19739;SDS011;10027;51.066;13.768;2023-09-07T09:04:53;4.45;;;4.05;;
19739;SDS011;10027;51.066;13.768;2023-09-07T09:07:20;7.25;;;4.15;;
19739;SDS011;10027;51.066;13.768;2023-09-07T09:09:48;4.43;;;3.95;;
19739;SDS011;10027;51.066;13.768;2023-09-07T09:12:16;4.38;;;3.97;;
19739;SDS011;10027;51.066;13.768;2023-09-07T09:14:44;4.20;;;3.90;;
19739;SDS011;10027;51.066;13.768;2023-09-07T09:17:12;5.15;;;4.15;;
19739;SDS011;10027;51.066;13.768;2023-09-07T09:19:40;5.45;;;3.83;;
19739;SDS011;10027;51.066;13.768;2023-09-07T09:22:08;4.20;;;3.83;;
19739;SDS011;10027;51.066;13.768;2023-09-07T09:24:35;4.35;;;3.90;;
19739;SDS011;10027;51.066;13.768;2023-09-07T09:27:03;4.47;;;3.58;;
19739;SDS011;10027;51.066;13.768;2023-09-07T09:29:34;4.13;;;3.72;;
19739;SDS011;10027;51.066;13.768;2023-09-07T09:32:06;4.13;;;3.72;;
19739;SDS011;10027;51.066;13.768;2023-09-07T09:34:33;5.03;;;3.78;;
19739;SDS011;10027;51.066;13.768;2023-09-07T09:37:01;4.40;;;3.63;;
19739;SDS011;10027;51.066;13.768;2023-09-07T09:39:32;4.25;;;3.85;;
19739;SDS011;10027;51.066;13.768;2023-09-07T09:42:00;5.38;;;4.03;;
19739;SDS011;10027;51.066;13.768;2023-09-07T09:44:28;4.70;;;4.30;;
19739;SDS011;10027;51.066;13.768;2023-09-07T09:46:56;4.93;;;4.18;;
19739;SDS011;10027;51.066;13.768;2023-09-07T09:49:24;4.32;;;3.92;;
19739;SDS011;10027;51.066;13.768;2023-09-07T09:51:52;4.28;;;3.90;;
19739;SDS011;10027;51.066;13.768;2023-09-07T09:54:21;3.95;;;3.65;;
19739;SDS011;10027;51.066;13.768;2023-09-07T09:56:49;4.25;;;3.85;;
19739;SDS011;10027;51.066;13.768;2023-09-07T09:59:16;5.47;;;3.80;;
19739;SDS011;10027;51.066;13.768;2023-09-07T10:01:46;4.22;;;3.83;;
19739;SDS011;10027;51.066;13.768;2023-09-07T10:04:17;6.25;;;4.30;;
19739;SDS011;10027;51.066;13.768;2023-09-07T10:06:54;8.40;;;4.10;;
19739;SDS011;10027;51.066;13.768;2023-09-07T10:09:22;4.88;;;4.03;;
19739;SDS011;10027;51.066;13.768;2023-09-07T10:11:53;11.00;;;4.22;;
19739;SDS011;10027;51.066;13.768;2023-09-07T10:14:20;5.30;;;3.75;;
19739;SDS011;10027;51.066;13.768;2023-09-07T10:16:49;4.63;;;4.23;;
19739;SDS011;10027;51.066;13.768;2023-09-07T10:19:19;4.40;;;3.50;;
19739;SDS011;10027;51.066;13.768;2023-09-07T10:21:46;5.15;;;3.85;;
19739;SDS011;10027;51.066;13.768;2023-09-07T10:24:23;4.23;;;3.83;;
19739;SDS011;10027;51.066;13.768;2023-09-07T10:29:24;4.40;;;3.80;;
19739;SDS011;10027;51.066;13.768;2023-09-07T10:31:52;4.53;;;4.10;;
19739;SDS011;10027;51.066;13.768;2023-09-07T10:34:19;3.87;;;3.50;;
19739;SDS011;10027;51.066;13.768;2023-09-07T10:36:48;4.77;;;4.23;;
19739;SDS011;10027;51.066;13.768;2023-09-07T10:39:22;4.80;;;4.00;;
19739;SDS011;10027;51.066;13.768;2023-09-07T10:41:49;4.93;;;4.10;;
19739;SDS011;10027;51.066;13.768;2023-09-07T10:44:24;4.43;;;3.80;;
19739;SDS011;10027;51.066;13.768;2023-09-07T10:46:52;4.00;;;3.70;;
19739;SDS011;10027;51.066;13.768;2023-09-07T10:49:19;4.20;;;3.80;;
19739;SDS011;10027;51.066;13.768;2023-09-07T10:51:46;4.63;;;4.10;;
19739;SDS011;10027;51.066;13.768;2023-09-07T10:54:14;4.63;;;4.20;;
19739;SDS011;10027;51.066;13.768;2023-09-07T10:56:46;4.53;;;3.73;;
19739;SDS011;10027;51.066;13.768;2023-09-07T10:59:13;4.37;;;3.97;;
19739;SDS011;10027;51.066;13.768;2023-09-07T11:01:41;4.30;;;3.90;;
19739;SDS011;10027;51.066;13.768;2023-09-07T11:04:08;4.30;;;3.90;;
19739;SDS011;10027;51.066;13.768;2023-09-07T11:06:38;5.20;;;3.90;;
19739;SDS011;10027;51.066;13.768;2023-09-07T11:09:06;5.20;;;4.00;;
19739;SDS011;10027;51.066;13.768;2023-09-07T11:11:37;5.33;;;4.17;;
19739;SDS011;10027;51.066;13.768;2023-09-07T11:14:05;5.07;;;4.23;;
19739;SDS011;10027;51.066;13.768;2023-09-07T11:16:34;4.50;;;3.77;;
19739;SDS011;10027;51.066;13.768;2023-09-07T11:19:05;5.50;;;4.20;;
19739;SDS011;10027;51.066;13.768;2023-09-07T11:21:32;4.37;;;3.93;;
19739;SDS011;10027;51.066;13.768;2023-09-07T11:24:01;5.23;;;3.90;;
19739;SDS011;10027;51.066;13.768;2023-09-07T11:26:40;4.57;;;4.03;;
19739;SDS011;10027;51.066;13.768;2023-09-07T11:29:07;4.40;;;4.00;;
19739;SDS011;10027;51.066;13.768;2023-09-07T11:31:35;4.97;;;4.47;;
19739;SDS011;10027;51.066;13.768;2023-09-07T11:34:02;4.07;;;3.67;;
19739;SDS011;10027;51.066;13.768;2023-09-07T11:36:30;4.40;;;4.00;;
19739;SDS011;10027;51.066;13.768;2023-09-07T11:38:57;4.60;;;4.10;;
19739;SDS011;10027;51.066;13.768;2023-09-07T11:41:24;9.30;;;4.30;;
19739;SDS011;10027;51.066;13.768;2023-09-07T11:43:51;5.90;;;4.37;;
19739;SDS011;10027;51.066;13.768;2023-09-07T11:46:19;4.67;;;4.13;;
19739;SDS011;10027;51.066;13.768;2023-09-07T11:48:46;4.50;;;4.10;;
19739;SDS011;10027;51.066;13.768;2023-09-07T11:51:13;4.67;;;4.20;;
19739;SDS011;10027;51.066;13.768;2023-09-07T11:53:40;4.90;;;4.30;;
19739;SDS011;10027;51.066;13.768;2023-09-07T11:56:08;4.73;;;4.23;;
19739;SDS011;10027;51.066;13.768;2023-09-07T11:58:35;6.00;;;4.10;;
19739;SDS011;10027;51.066;13.768;2023-09-07T12:01:02;4.70;;;4.17;;
19739;SDS011;10027;51.066;13.768;2023-09-07T12:03:30;4.53;;;4.13;;
19739;SDS011;10027;51.066;13.768;2023-09-07T12:06:00;4.57;;;4.17;;
19739;SDS011;10027;51.066;13.768;2023-09-07T12:08:27;7.73;;;4.23;;
19739;SDS011;10027;51.066;13.768;2023-09-07T12:10:54;4.77;;;4.27;;
19739;SDS011;10027;51.066;13.768;2023-09-07T12:13:22;5.57;;;4.20;;
19739;SDS011;10027;51.066;13.768;2023-09-07T12:15:49;5.17;;;4.13;;
19739;SDS011;10027;51.066;13.768;2023-09-07T12:18:16;4.40;;;3.77;;
19739;SDS011;10027;51.066;13.768;2023-09-07T12:20:44;4.90;;;4.30;;
19739;SDS011;10027;51.066;13.768;2023-09-07T12:23:11;4.97;;;4.20;;
19739;SDS011;10027;51.066;13.768;2023-09-07T12:25:38;5.37;;;4.87;;
19739;SDS011;10027;51.066;13.768;2023-09-07T12:28:05;7.10;;;4.33;;
19739;SDS011;10027;51.066;13.768;2023-09-07T12:30:33;4.93;;;4.20;;
19739;SDS011;10027;51.066;13.768;2023-09-07T12:33:02;4.80;;;4.30;;
19739;SDS011;10027;51.066;13.768;2023-09-07T12:35:29;5.00;;;4.50;;
19739;SDS011;10027;51.066;13.768;2023-09-07T12:37:57;5.70;;;4.70;;
19739;SDS011;10027;51.066;13.768;2023-09-07T12:40:24;5.17;;;4.60;;
19739;SDS011;10027;51.066;13.768;2023-09-07T12:42:51;5.97;;;4.30;;
19739;SDS011;10027;51.066;13.768;2023-09-07T12:45:19;4.77;;;4.23;;
19739;SDS011;10027;51.066;13.768;2023-09-07T12:47:46;5.70;;;4.33;;
19739;SDS011;10027;51.066;13.768;2023-09-07T12:50:13;4.33;;;3.90;;
19739;SDS011;10027;51.066;13.768;2023-09-07T12:52:41;4.67;;;4.27;;
19739;SDS011;10027;51.066;13.768;2023-09-07T12:55:08;5.20;;;4.70;;
19739;SDS011;10027;51.066;13.768;2023-09-07T12:57:35;4.60;;;3.83;;
19739;SDS011;10027;51.066;13.768;2023-09-07T13:00:05;5.47;;;4.20;;
19739;SDS011;10027;51.066;13.768;2023-09-07T13:02:33;5.43;;;4.30;;
19739;SDS011;10027;51.066;13.768;2023-09-07T13:05:00;4.40;;;4.00;;
19739;SDS011;10027;51.066;13.768;2023-09-07T13:07:32;6.00;;;4.43;;
19739;SDS011;10027;51.066;13.768;2023-09-07T13:09:59;5.30;;;3.97;;
19739;SDS011;10027;51.066;13.768;2023-09-07T13:12:32;4.13;;;3.73;;
19739;SDS011;10027;51.066;13.768;2023-09-07T13:15:00;4.13;;;3.73;;
19739;SDS011;10027;51.066;13.768;2023-09-07T13:17:27;5.40;;;3.90;;
19739;SDS011;10027;51.066;13.768;2023-09-07T13:19:56;4.33;;;3.93;;
19739;SDS011;10027;51.066;13.768;2023-09-07T13:22:23;5.17;;;3.90;;
19739;SDS011;10027;51.066;13.768;2023-09-07T13:24:51;4.50;;;3.80;;
19739;SDS011;10027;51.066;13.768;2023-09-07T13:27:18;4.10;;;3.60;;
19739;SDS011;10027;51.066;13.768;2023-09-07T13:29:45;4.20;;;3.80;;
19739;SDS011;10027;51.066;13.768;2023-09-07T13:32:12;4.30;;;3.77;;
19739;SDS011;10027;51.066;13.768;2023-09-07T13:34:40;4.20;;;3.80;;
19739;SDS011;10027;51.066;13.768;2023-09-07T13:37:07;4.40;;;3.63;;
19739;SDS011;10027;51.066;13.768;2023-09-07T13:39:34;5.43;;;4.30;;
19739;SDS011;10027;51.066;13.768;2023-09-07T13:42:02;4.00;;;3.70;;
19739;SDS011;10027;51.066;13.768;2023-09-07T13:44:29;4.20;;;3.80;;
19739;SDS011;10027;51.066;13.768;2023-09-07T13:46:56;4.83;;;3.73;;
19739;SDS011;10027;51.066;13.768;2023-09-07T13:49:23;4.00;;;3.60;;
19739;SDS011;10027;51.066;13.768;2023-09-07T13:51:51;5.23;;;3.80;;
19739;SDS011;10027;51.066;13.768;2023-09-07T13:54:18;5.03;;;3.70;;
19739;SDS011;10027;51.066;13.768;2023-09-07T13:56:45;4.07;;;3.77;;
19739;SDS011;10027;51.066;13.768;2023-09-07T13:59:13;4.17;;;3.77;;
19739;SDS011;10027;51.066;13.768;2023-09-07T14:01:40;4.37;;;3.67;;
19739;SDS011;10027;51.066;13.768;2023-09-07T14:04:07;3.60;;;3.30;;
19739;SDS011;10027;51.066;13.768;2023-09-07T14:06:34;4.30;;;3.90;;
19739;SDS011;10027;51.066;13.768;2023-09-07T14:09:01;3.60;;;3.30;;
19739;SDS011;10027;51.066;13.768;2023-09-07T14:11:29;6.87;;;4.20;;
19739;SDS011;10027;51.066;13.768;2023-09-07T14:13:57;3.87;;;3.47;;
19739;SDS011;10027;51.066;13.768;2023-09-07T14:16:24;3.77;;;3.37;;
19739;SDS011;10027;51.066;13.768;2023-09-07T14:18:51;4.27;;;3.10;;
19739;SDS011;10027;51.066;13.768;2023-09-07T14:21:18;3.90;;;3.40;;
19739;SDS011;10027;51.066;13.768;2023-09-07T14:23:45;3.50;;;3.20;;
19739;SDS011;10027;51.066;13.768;2023-09-07T14:26:13;3.07;;;2.77;;
19739;SDS011;10027;51.066;13.768;2023-09-07T14:28:40;3.77;;;2.93;;
19739;SDS011;10027;51.066;13.768;2023-09-07T14:31:07;3.40;;;3.10;;
19739;SDS011;10027;51.066;13.768;2023-09-07T14:33:34;5.33;;;3.20;;
19739;SDS011;10027;51.066;13.768;2023-09-07T14:36:07;7.83;;;4.03;;
19739;SDS011;10027;51.066;13.768;2023-09-07T14:38:34;3.80;;;3.40;;
19739;SDS011;10027;51.066;13.768;2023-09-07T14:41:07;3.73;;;3.43;;
19739;SDS011;10027;51.066;13.768;2023-09-07T14:43:46;4.73;;;3.50;;